sensor_id;sensor_type;location;lat;lon;timestamp;pressure;altitude;pressure_sealevel;temperature;humidity
68994;BME280;56054;50.968;5.816;2024-01-07T00:01:49;100679.94;;;2.02;100.00
68994;BME280;56054;50.968;5.816;2024-01-07T00:04:56;100683.84;;;2.16;100.00
68994;BME280;56054;50.968;5.816;2024-01-07T00:08:03;100682.09;;;1.88;100.00
68994;BME280;56054;50.968;5.816;2024-01-07T00:11:10;100687.81;;;2.03;100.00
68994;BME280;56054;50.968;5.816;2024-01-07T00:14:17;100686.47;;;1.98;100.00
68994;BME280;56054;50.968;5.816;2024-01-07T00:17:24;100686.56;;;2.08;100.00
68994;BME280;56054;50.968;5.816;2024-01-07T00:20:31;100696.38;;;2.04;100.00
68994;BME280;56054;50.968;5.816;2024-01-07T00:23:38;100687.84;;;2.31;100.00
68994;BME280;56054;50.968;5.816;2024-01-07T00:26:45;100689.84;;;2.25;100.00
68994;BME280;56054;50.968;5.816;2024-01-07T00:29:52;100701.66;;;2.05;100.00
68994;BME280;56054;50.968;5.816;2024-01-07T00:32:59;100698.44;;;2.17;100.00
68994;BME280;56054;50.968;5.816;2024-01-07T00:36:06;100702.72;;;1.99;100.00
68994;BME280;56054;50.968;5.816;2024-01-07T00:39:13;100706.03;;;2.06;100.00
68994;BME280;56054;50.968;5.816;2024-01-07T00:42:20;100692.00;;;2.11;100.00
68994;BME280;56054;50.968;5.816;2024-01-07T00:45:28;100694.53;;;2.20;100.00
68994;BME280;56054;50.968;5.816;2024-01-07T00:48:35;100701.19;;;2.09;100.00
68994;BME280;56054;50.968;5.816;2024-01-07T00:51:42;100698.78;;;2.02;100.00
68994;BME280;56054;50.968;5.816;2024-01-07T00:54:49;100697.41;;;2.14;100.00
68994;BME280;56054;50.968;5.816;2024-01-07T00:57:56;100699.56;;;1.92;100.00
68994;BME280;56054;50.968;5.816;2024-01-07T01:01:03;100705.47;;;2.00;100.00
68994;BME280;56054;50.968;5.816;2024-01-07T01:04:10;100710.41;;;2.07;100.00
68994;BME280;56054;50.968;5.816;2024-01-07T01:07:17;100719.69;;;2.24;100.00
68994;BME280;56054;50.968;5.816;2024-01-07T01:10:24;100717.00;;;2.14;100.00
68994;BME280;56054;50.968;5.816;2024-01-07T01:13:31;100722.75;;;2.11;100.00
68994;BME280;56054;50.968;5.816;2024-01-07T01:16:38;100730.00;;;2.16;100.00
68994;BME280;56054;50.968;5.816;2024-01-07T01:19:45;100728.19;;;2.06;100.00
68994;BME280;56054;50.968;5.816;2024-01-07T01:22:52;100738.00;;;2.01;100.00
68994;BME280;56054;50.968;5.816;2024-01-07T01:26:06;100739.63;;;2.09;100.00
68994;BME280;56054;50.968;5.816;2024-01-07T01:29:13;100731.50;;;2.13;100.00
68994;BME280;56054;50.968;5.816;2024-01-07T01:32:20;100734.94;;;2.23;100.00
68994;BME280;56054;50.968;5.816;2024-01-07T01:35:27;100730.56;;;2.22;100.00
68994;BME280;56054;50.968;5.816;2024-01-07T01:38:34;100744.75;;;2.27;100.00
68994;BME280;56054;50.968;5.816;2024-01-07T01:41:41;100750.28;;;2.31;100.00
68994;BME280;56054;50.968;5.816;2024-01-07T01:44:48;100755.00;;;2.18;100.00
68994;BME280;56054;50.968;5.816;2024-01-07T01:47:55;100754.84;;;2.17;100.00
68994;BME280;56054;50.968;5.816;2024-01-07T01:51:02;100757.13;;;2.13;100.00
68994;BME280;56054;50.968;5.816;2024-01-07T01:54:09;100755.94;;;2.01;100.00
68994;BME280;56054;50.968;5.816;2024-01-07T01:57:21;100762.56;;;2.08;100.00
68994;BME280;56054;50.968;5.816;2024-01-07T02:00:28;100754.84;;;2.17;100.00
68994;BME280;56054;50.968;5.816;2024-01-07T02:03:35;100770.22;;;2.17;100.00
68994;BME280;56054;50.968;5.816;2024-01-07T02:06:42;100770.53;;;2.02;100.00
68994;BME280;56054;50.968;5.816;2024-01-07T02:09:51;100770.41;;;2.01;100.00
68994;BME280;56054;50.968;5.816;2024-01-07T02:12:58;100776.16;;;1.98;100.00
68994;BME280;56054;50.968;5.816;2024-01-07T02:16:05;100767.72;;;1.82;100.00
68994;BME280;56054;50.968;5.816;2024-01-07T02:19:12;100779.63;;;2.07;100.00
68994;BME280;56054;50.968;5.816;2024-01-07T02:22:19;100771.66;;;1.78;100.00
68994;BME280;56054;50.968;5.816;2024-01-07T02:25:26;100771.03;;;1.98;100.00
68994;BME280;56054;50.968;5.816;2024-01-07T02:28:33;100778.56;;;1.79;100.00
68994;BME280;56054;50.968;5.816;2024-01-07T02:31:40;100777.38;;;1.93;100.00
68994;BME280;56054;50.968;5.816;2024-01-07T02:34:47;100783.84;;;1.98;100.00
68994;BME280;56054;50.968;5.816;2024-01-07T02:37:54;100784.44;;;1.69;100.00
68994;BME280;56054;50.968;5.816;2024-01-07T02:41:01;100787.88;;;2.05;100.00
68994;BME280;56054;50.968;5.816;2024-01-07T02:44:08;100788.03;;;1.80;100.00
68994;BME280;56054;50.968;5.816;2024-01-07T02:47:15;100794.53;;;1.94;100.00
68994;BME280;56054;50.968;5.816;2024-01-07T02:50:29;100785.94;;;2.02;100.00
68994;BME280;56054;50.968;5.816;2024-01-07T02:53:36;100788.66;;;2.04;100.00
68994;BME280;56054;50.968;5.816;2024-01-07T02:56:43;100798.88;;;1.95;100.00
68994;BME280;56054;50.968;5.816;2024-01-07T02:59:50;100793.19;;;1.89;100.00
68994;BME280;56054;50.968;5.816;2024-01-07T03:02:57;100794.84;;;1.80;100.00
68994;BME280;56054;50.968;5.816;2024-01-07T03:06:04;100794.84;;;1.88;100.00
68994;BME280;56054;50.968;5.816;2024-01-07T03:09:11;100796.19;;;1.93;100.00
68994;BME280;56054;50.968;5.816;2024-01-07T03:12:18;100788.81;;;1.88;100.00
68994;BME280;56054;50.968;5.816;2024-01-07T03:15:25;100804.19;;;1.97;100.00
68994;BME280;56054;50.968;5.816;2024-01-07T03:18:32;100804.78;;;2.03;100.00
68994;BME280;56054;50.968;5.816;2024-01-07T03:21:39;100805.69;;;2.03;100.00
68994;BME280;56054;50.968;5.816;2024-01-07T03:24:46;100801.31;;;2.11;100.00
68994;BME280;56054;50.968;5.816;2024-01-07T03:27:53;100801.91;;;2.08;100.00
68994;BME280;56054;50.968;5.816;2024-01-07T03:31:05;100802.66;;;1.90;100.00
68994;BME280;56054;50.968;5.816;2024-01-07T03:34:12;100805.69;;;1.95;100.00
68994;BME280;56054;50.968;5.816;2024-01-07T03:37:19;100806.13;;;1.99;100.00
68994;BME280;56054;50.968;5.816;2024-01-07T03:40:26;100804.81;;;1.85;100.00
68994;BME280;56054;50.968;5.816;2024-01-07T03:43:33;100796.97;;;1.84;100.00
68994;BME280;56054;50.968;5.816;2024-01-07T03:46:40;100804.94;;;2.04;100.00
68994;BME280;56054;50.968;5.816;2024-01-07T03:49:47;100811.41;;;1.92;100.00
68994;BME280;56054;50.968;5.816;2024-01-07T03:52:54;100806.00;;;1.98;100.00
68994;BME280;56054;50.968;5.816;2024-01-07T03:56:01;100811.69;;;1.95;100.00
68994;BME280;56054;50.968;5.816;2024-01-07T03:59:08;100815.34;;;1.88;100.00
68994;BME280;56054;50.968;5.816;2024-01-07T04:02:15;100821.81;;;1.93;100.00
68994;BME280;56054;50.968;5.816;2024-01-07T04:05:22;100821.53;;;2.08;100.00
68994;BME280;56054;50.968;5.816;2024-01-07T04:08:29;100829.19;;;1.99;100.00
68994;BME280;56054;50.968;5.816;2024-01-07T04:11:40;100831.75;;;1.99;100.00
68994;BME280;56054;50.968;5.816;2024-01-07T04:14:47;100834.34;;;1.90;100.00
68994;BME280;56054;50.968;5.816;2024-01-07T04:17:54;100831.78;;;2.08;100.00
68994;BME280;56054;50.968;5.816;2024-01-07T04:21:01;100839.75;;;2.02;100.00
68994;BME280;56054;50.968;5.816;2024-01-07T04:24:08;100840.22;;;1.98;100.00
68994;BME280;56054;50.968;5.816;2024-01-07T04:27:15;100837.94;;;2.01;100.00
68994;BME280;56054;50.968;5.816;2024-01-07T04:30:22;100845.03;;;2.04;100.00
68994;BME280;56054;50.968;5.816;2024-01-07T04:33:29;100844.59;;;1.90;100.00
68994;BME280;56054;50.968;5.816;2024-01-07T04:36:36;100850.31;;;1.88;100.00
68994;BME280;56054;50.968;5.816;2024-01-07T04:39:43;100864.16;;;1.90;100.00
68994;BME280;56054;50.968;5.816;2024-01-07T04:42:50;100862.19;;;1.87;100.00
68994;BME280;56054;50.968;5.816;2024-01-07T04:45:57;100857.41;;;1.90;100.00
68994;BME280;56054;50.968;5.816;2024-01-07T04:49:04;100858.44;;;1.92;100.00
68994;BME280;56054;50.968;5.816;2024-01-07T04:52:11;100868.41;;;1.98;100.00
68994;BME280;56054;50.968;5.816;2024-01-07T04:55:18;100862.38;;;1.98;100.00
68994;BME280;56054;50.968;5.816;2024-01-07T04:58:25;100873.22;;;1.95;100.00
68994;BME280;56054;50.968;5.816;2024-01-07T05:01:33;100870.34;;;1.92;100.00
68994;BME280;56054;50.968;5.816;2024-01-07T05:04:41;100873.53;;;1.81;100.00
68994;BME280;56054;50.968;5.816;2024-01-07T05:07:48;100877.44;;;1.95;100.00
68994;BME280;56054;50.968;5.816;2024-01-07T05:10:55;100867.03;;;1.84;100.00
68994;BME280;56054;50.968;5.816;2024-01-07T05:14:02;100877.16;;;2.00;100.00
68994;BME280;56054;50.968;5.816;2024-01-07T05:17:09;100871.56;;;1.87;100.00
68994;BME280;56054;50.968;5.816;2024-01-07T05:20:16;100880.44;;;1.82;100.00
68994;BME280;56054;50.968;5.816;2024-01-07T05:23:23;100886.19;;;1.88;100.00
68994;BME280;56054;50.968;5.816;2024-01-07T05:26:30;100891.00;;;1.76;100.00
68994;BME280;56054;50.968;5.816;2024-01-07T05:29:37;100894.91;;;1.90;100.00
68994;BME280;56054;50.968;5.816;2024-01-07T05:32:44;100891.63;;;1.91;100.00
68994;BME280;56054;50.968;5.816;2024-01-07T05:35:51;100901.56;;;1.88;100.00
68994;BME280;56054;50.968;5.816;2024-01-07T05:38:58;100904.28;;;1.81;100.00
68994;BME280;56054;50.968;5.816;2024-01-07T05:42:05;100904.28;;;1.81;100.00
68994;BME280;56054;50.968;5.816;2024-01-07T05:45:12;100907.69;;;1.73;100.00
68994;BME280;56054;50.968;5.816;2024-01-07T05:48:22;100918.06;;;1.65;100.00
68994;BME280;56054;50.968;5.816;2024-01-07T05:51:29;100913.16;;;1.76;100.00
68994;BME280;56054;50.968;5.816;2024-01-07T05:54:36;100918.09;;;1.74;100.00
68994;BME280;56054;50.968;5.816;2024-01-07T05:57:43;100917.22;;;1.74;100.00
68994;BME280;56054;50.968;5.816;2024-01-07T06:00:50;100922.75;;;1.69;100.00
68994;BME280;56054;50.968;5.816;2024-01-07T06:03:57;100933.78;;;1.68;100.00
68994;BME280;56054;50.968;5.816;2024-01-07T06:07:04;100936.47;;;1.70;100.00
68994;BME280;56054;50.968;5.816;2024-01-07T06:10:11;100944.75;;;1.67;100.00
68994;BME280;56054;50.968;5.816;2024-01-07T06:13:18;100957.56;;;1.67;100.00
68994;BME280;56054;50.968;5.816;2024-01-07T06:16:25;100957.91;;;1.79;100.00
68994;BME280;56054;50.968;5.816;2024-01-07T06:19:32;100961.78;;;1.67;100.00
68994;BME280;56054;50.968;5.816;2024-01-07T06:22:39;100953.03;;;1.65;100.00
68994;BME280;56054;50.968;5.816;2024-01-07T06:25:46;100958.28;;;1.58;100.00
68994;BME280;56054;50.968;5.816;2024-01-07T06:28:53;100962.50;;;1.57;100.00
68994;BME280;56054;50.968;5.816;2024-01-07T06:32:00;100959.53;;;1.70;100.00
68994;BME280;56054;50.968;5.816;2024-01-07T06:35:07;100966.75;;;1.65;100.00
68994;BME280;56054;50.968;5.816;2024-01-07T06:38:14;100973.94;;;1.52;100.00
68994;BME280;56054;50.968;5.816;2024-01-07T06:41:21;100980.78;;;1.69;100.00
68994;BME280;56054;50.968;5.816;2024-01-07T06:44:28;100972.06;;;1.76;100.00
68994;BME280;56054;50.968;5.816;2024-01-07T06:47:35;100981.81;;;1.62;100.00
68994;BME280;56054;50.968;5.816;2024-01-07T06:50:42;100988.16;;;1.66;100.00
68994;BME280;56054;50.968;5.816;2024-01-07T06:53:49;100989.28;;;1.85;100.00
68994;BME280;56054;50.968;5.816;2024-01-07T06:56:56;100994.19;;;1.66;100.00
68994;BME280;56054;50.968;5.816;2024-01-07T07:00:03;100996.28;;;1.70;100.00
68994;BME280;56054;50.968;5.816;2024-01-07T07:03:10;101004.44;;;1.66;100.00
68994;BME280;56054;50.968;5.816;2024-01-07T07:06:17;101003.56;;;1.75;100.00
68994;BME280;56054;50.968;5.816;2024-01-07T07:09:24;101012.66;;;1.55;100.00
68994;BME280;56054;50.968;5.816;2024-01-07T07:12:31;101018.84;;;1.57;100.00
68994;BME280;56054;50.968;5.816;2024-01-07T07:15:38;101023.31;;;1.76;100.00
68994;BME280;56054;50.968;5.816;2024-01-07T07:18:45;101029.75;;;1.72;100.00
68994;BME280;56054;50.968;5.816;2024-01-07T07:21:52;101031.97;;;1.60;100.00
68994;BME280;56054;50.968;5.816;2024-01-07T07:24:59;101049.97;;;1.44;100.00
68994;BME280;56054;50.968;5.816;2024-01-07T07:28:06;101050.75;;;1.52;100.00
68994;BME280;56054;50.968;5.816;2024-01-07T07:31:13;101050.34;;;1.56;100.00
68994;BME280;56054;50.968;5.816;2024-01-07T07:34:20;101049.78;;;1.67;100.00
68994;BME280;56054;50.968;5.816;2024-01-07T07:37:27;101055.41;;;1.47;100.00
68994;BME280;56054;50.968;5.816;2024-01-07T07:40:34;101068.31;;;1.40;100.00
68994;BME280;56054;50.968;5.816;2024-01-07T07:43:41;101073.25;;;1.39;100.00
68994;BME280;56054;50.968;5.816;2024-01-07T07:46:48;101080.50;;;1.34;100.00
68994;BME280;56054;50.968;5.816;2024-01-07T07:49:55;101081.63;;;1.29;100.00
68994;BME280;56054;50.968;5.816;2024-01-07T07:53:02;101098.16;;;1.40;100.00
68994;BME280;56054;50.968;5.816;2024-01-07T07:56:09;101090.09;;;1.53;100.00
68994;BME280;56054;50.968;5.816;2024-01-07T07:59:16;101099.22;;;1.42;100.00
68994;BME280;56054;50.968;5.816;2024-01-07T08:02:23;101102.59;;;1.34;100.00
68994;BME280;56054;50.968;5.816;2024-01-07T08:05:37;101106.78;;;1.24;100.00
68994;BME280;56054;50.968;5.816;2024-01-07T08:08:44;101115.59;;;1.19;100.00
68994;BME280;56054;50.968;5.816;2024-01-07T08:11:51;101115.19;;;1.23;100.00
68994;BME280;56054;50.968;5.816;2024-01-07T08:14:58;101123.53;;;1.30;100.00
68994;BME280;56054;50.968;5.816;2024-01-07T08:18:05;101134.59;;;1.21;100.00
68994;BME280;56054;50.968;5.816;2024-01-07T08:21:12;101126.31;;;1.24;100.00
68994;BME280;56054;50.968;5.816;2024-01-07T08:24:19;101129.81;;;1.24;100.00
68994;BME280;56054;50.968;5.816;2024-01-07T08:27:27;101137.50;;;1.24;100.00
68994;BME280;56054;50.968;5.816;2024-01-07T08:30:34;101147.25;;;1.04;100.00
68994;BME280;56054;50.968;5.816;2024-01-07T08:33:41;101142.25;;;1.21;100.00
68994;BME280;56054;50.968;5.816;2024-01-07T08:36:48;101158.88;;;1.25;100.00
68994;BME280;56054;50.968;5.816;2024-01-07T08:39:55;101151.69;;;1.30;100.00
68994;BME280;56054;50.968;5.816;2024-01-07T08:43:02;101161.25;;;1.23;100.00
68994;BME280;56054;50.968;5.816;2024-01-07T08:46:09;101155.66;;;1.19;100.00
68994;BME280;56054;50.968;5.816;2024-01-07T08:49:16;101152.09;;;1.10;100.00
68994;BME280;56054;50.968;5.816;2024-01-07T08:52:24;101163.19;;;1.17;100.00
68994;BME280;56054;50.968;5.816;2024-01-07T08:55:31;101161.53;;;1.18;100.00
68994;BME280;56054;50.968;5.816;2024-01-07T08:58:45;101162.34;;;1.25;100.00
68994;BME280;56054;50.968;5.816;2024-01-07T09:01:52;101171.00;;;1.19;100.00
68994;BME280;56054;50.968;5.816;2024-01-07T09:04:59;101181.19;;;1.10;100.00
68994;BME280;56054;50.968;5.816;2024-01-07T09:08:06;101174.22;;;1.09;100.00
68994;BME280;56054;50.968;5.816;2024-01-07T09:11:13;101184.91;;;1.05;100.00
68994;BME280;56054;50.968;5.816;2024-01-07T09:14:20;101181.59;;;1.06;100.00
68994;BME280;56054;50.968;5.816;2024-01-07T09:17:27;101189.16;;;0.97;100.00
68994;BME280;56054;50.968;5.816;2024-01-07T09:20:34;101190.66;;;1.11;100.00
68994;BME280;56054;50.968;5.816;2024-01-07T09:23:41;101198.34;;;1.11;100.00
68994;BME280;56054;50.968;5.816;2024-01-07T09:26:48;101197.78;;;0.98;100.00
68994;BME280;56054;50.968;5.816;2024-01-07T09:29:55;101208.34;;;1.01;100.00
68994;BME280;56054;50.968;5.816;2024-01-07T09:33:02;101203.38;;;1.02;100.00
68994;BME280;56054;50.968;5.816;2024-01-07T09:36:09;101218.06;;;0.96;100.00
68994;BME280;56054;50.968;5.816;2024-01-07T09:39:16;101217.09;;;1.03;100.00
68994;BME280;56054;50.968;5.816;2024-01-07T09:42:23;101213.28;;;0.99;100.00
68994;BME280;56054;50.968;5.816;2024-01-07T09:45:30;101219.47;;;1.01;100.00
68994;BME280;56054;50.968;5.816;2024-01-07T09:48:37;101219.81;;;0.89;100.00
68994;BME280;56054;50.968;5.816;2024-01-07T09:51:45;101220.88;;;0.91;100.00
68994;BME280;56054;50.968;5.816;2024-01-07T09:55:03;101226.00;;;0.91;100.00
68994;BME280;56054;50.968;5.816;2024-01-07T09:58:10;101235.16;;;0.89;100.00
68994;BME280;56054;50.968;5.816;2024-01-07T10:01:17;101231.19;;;0.83;100.00
68994;BME280;56054;50.968;5.816;2024-01-07T10:04:31;101241.00;;;0.88;100.00
68994;BME280;56054;50.968;5.816;2024-01-07T10:07:38;101235.41;;;0.99;100.00
68994;BME280;56054;50.968;5.816;2024-01-07T10:10:45;101243.16;;;0.92;100.00
68994;BME280;56054;50.968;5.816;2024-01-07T10:13:53;101234.44;;;1.05;100.00
68994;BME280;56054;50.968;5.816;2024-01-07T10:17:00;101244.06;;;0.92;100.00
68994;BME280;56054;50.968;5.816;2024-01-07T10:20:07;101247.38;;;0.91;100.00
68994;BME280;56054;50.968;5.816;2024-01-07T10:23:20;101253.38;;;0.92;100.00
68994;BME280;56054;50.968;5.816;2024-01-07T10:26:27;101249.75;;;0.90;100.00
68994;BME280;56054;50.968;5.816;2024-01-07T10:29:34;101251.34;;;0.96;100.00
68994;BME280;56054;50.968;5.816;2024-01-07T10:32:48;101245.31;;;0.96;100.00
68994;BME280;56054;50.968;5.816;2024-01-07T10:36:01;101252.34;;;1.05;100.00
68994;BME280;56054;50.968;5.816;2024-01-07T10:39:08;101262.53;;;0.90;100.00
68994;BME280;56054;50.968;5.816;2024-01-07T10:42:18;101257.03;;;0.94;100.00
68994;BME280;56054;50.968;5.816;2024-01-07T10:45:25;101266.44;;;0.86;100.00
68994;BME280;56054;50.968;5.816;2024-01-07T10:48:37;101261.31;;;0.86;100.00
68994;BME280;56054;50.968;5.816;2024-01-07T10:51:45;101267.44;;;0.95;100.00
68994;BME280;56054;50.968;5.816;2024-01-07T10:55:03;101270.84;;;1.03;100.00
68994;BME280;56054;50.968;5.816;2024-01-07T10:58:14;101272.63;;;1.04;100.00
68994;BME280;56054;50.968;5.816;2024-01-07T11:01:21;101266.19;;;0.92;100.00
68994;BME280;56054;50.968;5.816;2024-01-07T11:04:38;101269.75;;;1.01;100.00
68994;BME280;56054;50.968;5.816;2024-01-07T11:11:18;101276.59;;;0.93;100.00
68994;BME280;56054;50.968;5.816;2024-01-07T11:14:39;101283.69;;;0.96;100.00
68994;BME280;56054;50.968;5.816;2024-01-07T11:17:46;101276.88;;;0.80;100.00
68994;BME280;56054;50.968;5.816;2024-01-07T11:20:53;101290.09;;;0.92;100.00
68994;BME280;56054;50.968;5.816;2024-01-07T11:24:00;101280.38;;;0.97;100.00
68994;BME280;56054;50.968;5.816;2024-01-07T11:27:10;101272.78;;;0.90;100.00
68994;BME280;56054;50.968;5.816;2024-01-07T11:30:20;101283.25;;;0.84;100.00
68994;BME280;56054;50.968;5.816;2024-01-07T11:33:32;101283.19;;;0.91;100.00
68994;BME280;56054;50.968;5.816;2024-01-07T11:36:39;101286.38;;;0.81;100.00
68994;BME280;56054;50.968;5.816;2024-01-07T11:39:47;101278.97;;;0.92;100.00
68994;BME280;56054;50.968;5.816;2024-01-07T11:42:54;101283.28;;;1.00;100.00
68994;BME280;56054;50.968;5.816;2024-01-07T11:46:01;101292.97;;;0.79;100.00
68994;BME280;56054;50.968;5.816;2024-01-07T11:49:08;101291.50;;;0.81;100.00
68994;BME280;56054;50.968;5.816;2024-01-07T11:52:15;101293.31;;;0.82;100.00
68994;BME280;56054;50.968;5.816;2024-01-07T11:55:23;101282.34;;;0.83;100.00
68994;BME280;56054;50.968;5.816;2024-01-07T11:58:31;101292.22;;;0.80;100.00
68994;BME280;56054;50.968;5.816;2024-01-07T12:01:38;101295.09;;;0.91;100.00
68994;BME280;56054;50.968;5.816;2024-01-07T12:04:45;101293.88;;;1.03;100.00
68994;BME280;56054;50.968;5.816;2024-01-07T12:07:52;101296.50;;;0.96;100.00
68994;BME280;56054;50.968;5.816;2024-01-07T12:10:59;101293.66;;;0.85;100.00
68994;BME280;56054;50.968;5.816;2024-01-07T12:14:07;101295.28;;;0.85;100.00
68994;BME280;56054;50.968;5.816;2024-01-07T12:17:18;101297.13;;;0.86;100.00
68994;BME280;56054;50.968;5.816;2024-01-07T12:20:26;101300.91;;;0.90;100.00
68994;BME280;56054;50.968;5.816;2024-01-07T12:23:37;101300.78;;;0.88;100.00
68994;BME280;56054;50.968;5.816;2024-01-07T12:26:44;101298.34;;;0.74;100.00
68994;BME280;56054;50.968;5.816;2024-01-07T12:29:57;101306.47;;;0.85;100.00
68994;BME280;56054;50.968;5.816;2024-01-07T12:33:05;101300.47;;;1.01;100.00
68994;BME280;56054;50.968;5.816;2024-01-07T12:36:12;101304.31;;;0.97;100.00
68994;BME280;56054;50.968;5.816;2024-01-07T12:39:19;101299.78;;;0.95;100.00
68994;BME280;56054;50.968;5.816;2024-01-07T12:42:26;101308.19;;;0.94;100.00
68994;BME280;56054;50.968;5.816;2024-01-07T12:45:33;101308.78;;;0.91;100.00
68994;BME280;56054;50.968;5.816;2024-01-07T12:48:40;101316.16;;;1.04;100.00
68994;BME280;56054;50.968;5.816;2024-01-07T12:51:47;101321.63;;;0.84;100.00
68994;BME280;56054;50.968;5.816;2024-01-07T12:54:54;101320.03;;;0.77;100.00
68994;BME280;56054;50.968;5.816;2024-01-07T12:58:01;101325.00;;;0.76;100.00
68994;BME280;56054;50.968;5.816;2024-01-07T13:01:08;101331.41;;;0.72;100.00
68994;BME280;56054;50.968;5.816;2024-01-07T13:04:17;101333.25;;;0.73;100.00
68994;BME280;56054;50.968;5.816;2024-01-07T13:07:24;101331.16;;;0.78;100.00
68994;BME280;56054;50.968;5.816;2024-01-07T13:10:31;101339.72;;;0.85;100.00
68994;BME280;56054;50.968;5.816;2024-01-07T13:13:38;101342.34;;;0.78;100.00
68994;BME280;56054;50.968;5.816;2024-01-07T13:16:45;101346.41;;;0.92;100.00
68994;BME280;56054;50.968;5.816;2024-01-07T13:19:52;101349.59;;;0.82;100.00
68994;BME280;56054;50.968;5.816;2024-01-07T13:22:59;101346.19;;;0.98;100.00
68994;BME280;56054;50.968;5.816;2024-01-07T13:26:06;101351.00;;;0.88;100.00
68994;BME280;56054;50.968;5.816;2024-01-07T13:29:13;101352.47;;;0.93;100.00
68994;BME280;56054;50.968;5.816;2024-01-07T13:32:20;101358.03;;;0.81;100.00
68994;BME280;56054;50.968;5.816;2024-01-07T13:35:28;101356.97;;;0.72;100.00
68994;BME280;56054;50.968;5.816;2024-01-07T13:38:36;101364.47;;;0.71;100.00
68994;BME280;56054;50.968;5.816;2024-01-07T13:41:43;101364.13;;;0.68;100.00
68994;BME280;56054;50.968;5.816;2024-01-07T13:44:49;101367.66;;;0.61;100.00
68994;BME280;56054;50.968;5.816;2024-01-07T13:47:56;101372.44;;;0.58;100.00
68994;BME280;56054;50.968;5.816;2024-01-07T13:51:03;101370.53;;;0.71;100.00
68994;BME280;56054;50.968;5.816;2024-01-07T13:54:10;101379.50;;;0.68;100.00
68994;BME280;56054;50.968;5.816;2024-01-07T13:57:17;101374.19;;;0.73;100.00
68994;BME280;56054;50.968;5.816;2024-01-07T14:00:24;101380.97;;;0.66;100.00
68994;BME280;56054;50.968;5.816;2024-01-07T14:03:31;101387.22;;;0.60;100.00
68994;BME280;56054;50.968;5.816;2024-01-07T14:06:38;101393.59;;;0.64;100.00
68994;BME280;56054;50.968;5.816;2024-01-07T14:09:45;101406.13;;;0.47;100.00
68994;BME280;56054;50.968;5.816;2024-01-07T14:12:52;101394.41;;;0.49;100.00
68994;BME280;56054;50.968;5.816;2024-01-07T14:15:59;101404.53;;;0.33;100.00
68994;BME280;56054;50.968;5.816;2024-01-07T14:19:06;101409.44;;;0.38;100.00
68994;BME280;56054;50.968;5.816;2024-01-07T14:22:13;101414.16;;;0.42;100.00
68994;BME280;56054;50.968;5.816;2024-01-07T14:25:20;101418.19;;;0.40;100.00
68994;BME280;56054;50.968;5.816;2024-01-07T14:28:27;101421.50;;;0.39;100.00
68994;BME280;56054;50.968;5.816;2024-01-07T14:31:34;101439.22;;;0.38;100.00
68994;BME280;56054;50.968;5.816;2024-01-07T14:34:41;101445.09;;;0.30;100.00
68994;BME280;56054;50.968;5.816;2024-01-07T14:37:48;101455.31;;;0.37;100.00
68994;BME280;56054;50.968;5.816;2024-01-07T14:40:55;101454.03;;;0.33;100.00
68994;BME280;56054;50.968;5.816;2024-01-07T14:44:02;101455.94;;;0.13;100.00
68994;BME280;56054;50.968;5.816;2024-01-07T14:47:10;101465.66;;;0.46;100.00
68994;BME280;56054;50.968;5.816;2024-01-07T14:50:18;101467.69;;;0.41;100.00
68994;BME280;56054;50.968;5.816;2024-01-07T14:53:25;101481.31;;;0.56;100.00
68994;BME280;56054;50.968;5.816;2024-01-07T14:56:32;101479.50;;;0.55;100.00
68994;BME280;56054;50.968;5.816;2024-01-07T14:59:39;101482.50;;;0.29;100.00
68994;BME280;56054;50.968;5.816;2024-01-07T15:02:46;101484.38;;;0.23;100.00
68994;BME280;56054;50.968;5.816;2024-01-07T15:05:53;101486.59;;;0.13;100.00
68994;BME280;56054;50.968;5.816;2024-01-07T15:09:00;101490.59;;;0.18;100.00
68994;BME280;56054;50.968;5.816;2024-01-07T15:12:07;101494.03;;;0.26;100.00
68994;BME280;56054;50.968;5.816;2024-01-07T15:15:14;101499.50;;;0.29;100.00
68994;BME280;56054;50.968;5.816;2024-01-07T15:18:21;101500.47;;;0.15;100.00
68994;BME280;56054;50.968;5.816;2024-01-07T15:21:28;101508.16;;;0.08;100.00
68994;BME280;56054;50.968;5.816;2024-01-07T15:24:35;101520.03;;;0.00;100.00
68994;BME280;56054;50.968;5.816;2024-01-07T15:27:42;101518.53;;;0.09;100.00
68994;BME280;56054;50.968;5.816;2024-01-07T15:30:49;101518.41;;;0.01;100.00
68994;BME280;56054;50.968;5.816;2024-01-07T15:33:56;101532.78;;;0.07;100.00
68994;BME280;56054;50.968;5.816;2024-01-07T15:37:03;101533.00;;;-0.06;100.00
68994;BME280;56054;50.968;5.816;2024-01-07T15:40:11;101542.50;;;-0.05;100.00
68994;BME280;56054;50.968;5.816;2024-01-07T15:43:17;101551.63;;;0.01;100.00
68994;BME280;56054;50.968;5.816;2024-01-07T15:46:24;101559.09;;;-0.08;100.00
68994;BME280;56054;50.968;5.816;2024-01-07T15:49:31;101565.66;;;-0.17;100.00
68994;BME280;56054;50.968;5.816;2024-01-07T15:52:38;101568.75;;;-0.20;100.00
68994;BME280;56054;50.968;5.816;2024-01-07T15:55:45;101576.81;;;-0.31;100.00
68994;BME280;56054;50.968;5.816;2024-01-07T15:58:52;101577.88;;;-0.22;100.00
68994;BME280;56054;50.968;5.816;2024-01-07T16:01:59;101582.81;;;-0.09;100.00
68994;BME280;56054;50.968;5.816;2024-01-07T16:05:06;101576.06;;;-0.09;100.00
68994;BME280;56054;50.968;5.816;2024-01-07T16:08:20;101587.94;;;-0.24;100.00
68994;BME280;56054;50.968;5.816;2024-01-07T16:11:27;101594.16;;;-0.22;100.00
68994;BME280;56054;50.968;5.816;2024-01-07T16:14:34;101585.19;;;-0.18;100.00
68994;BME280;56054;50.968;5.816;2024-01-07T16:17:41;101603.59;;;-0.28;100.00
68994;BME280;56054;50.968;5.816;2024-01-07T16:20:48;101602.34;;;-0.17;100.00
68994;BME280;56054;50.968;5.816;2024-01-07T16:23:55;101616.03;;;-0.24;100.00